Terminal Aerodrome Forecast
Issued by NWS Columbia, SC

Home | Current Version | Previous Version | Text Only | Print | Product List | Glossary On
Versions: 1 2 3 4 5 6 7 8 9 10 11 12 13 14 15 16 17 18 19 20 21 22 23 24 25 26 27 28 29 30 31 32 33 34 35 36 37 38 39 40 41 42
000
FTAK31 PAJN 112300
TAFAGS
TAF
PAGS 112329Z 1200/1224 VRB04KT 6SM -RA BR SCT025 OVC040
     FM120300 VRB04KT 5SM -RA BR SCT015 OVC025
     FM120700 VRB03KT 4SM -RA BR BKN007 OVC015
     FM122100 14006KT 5SM -RA BR SCT008 BKN015 OVC025
      AMD NOT SKED=

USA.gov is the U.S. government's official web portal to all federal, state and local government web resources and services.